Time;durP1;ratioP1;P1;durP2;ratioP2;P2;SDS_P1;SDS_P2;PMS_P1;PMS_P2;Temp;Humidity;BMP_temperature;BMP_pressure;BME280_temperature;BME280_humidity;BME280_pressure;Samples;Min_cycle;Max_cycle;Signal;HPM_P1;HPM_P2
2023/08/23 00:01:07;;;;;;;;;;;;;;;21.27;64.48;101425.03;3969795;29;20448;-66
2023/08/23 00:03:10;;;;;;;;;;;;;;;21.22;65.19;101425.72;3969542;29;20020;-67
2023/08/23 00:05:12;;;;;;;;;;;;;;;21.18;64.70;101415.41;3968940;29;20016;-66
2023/08/23 00:07:13;;;;;;;;;;;;;;;21.14;64.75;101416.94;3969759;29;20012;-66
2023/08/23 00:09:16;;;;;;;;;;;;;;;21.12;64.79;101411.69;3971064;29;20395;-66
2023/08/23 00:11:18;;;;;;;;;;;;;;;21.12;64.91;101417.16;3969393;29;20024;-66
2023/08/23 00:13:20;;;;;;;;;;;;;;;21.14;65.00;101414.19;3954248;29;20024;-67
2023/08/23 00:15:22;;;;;;;;;;;;;;;21.15;64.85;101421.38;3969535;29;20028;-66
2023/08/23 00:17:25;;;;;;;;;;;;;;;21.15;64.63;101415.88;3970702;29;20024;-66
2023/08/23 00:19:27;;;;;;;;;;;;;;;21.15;64.63;101427.69;3969603;29;20033;-66
2023/08/23 00:21:29;;;;;;;;;;;;;;;21.13;64.74;101428.97;3970359;29;20032;-65
2023/08/23 00:23:30;;;;;;;;;;;;;;;21.10;64.79;101424.81;3969842;29;20016;-65
2023/08/23 00:25:32;;;;;;;;;;;;;;;21.06;64.63;101427.19;3970423;29;20465;-65
2023/08/23 00:27:34;;;;;;;;;;;;;;;21.04;64.75;101426.56;3970065;29;20048;-65
2023/08/23 00:29:38;;;;;;;;;;;;;;;21.04;64.79;101426.56;3982727;29;20433;-65
2023/08/23 00:31:41;;;;;;;;;;;;;;;21.03;64.63;101424.03;3982899;29;20059;-65
2023/08/23 00:33:45;;;;;;;;;;;;;;;20.98;64.92;101426.66;3970232;29;19929;-65
2023/08/23 00:35:47;;;;;;;;;;;;;;;20.92;65.19;101414.66;3970385;29;20380;-65
2023/08/23 00:37:49;;;;;;;;;;;;;;;20.86;65.03;101421.94;3970362;29;20437;-66
2023/08/23 00:39:51;;;;;;;;;;;;;;;20.85;65.42;101422.16;3970256;29;20020;-66
2023/08/23 00:41:53;;;;;;;;;;;;;;;20.84;65.52;101421.31;3969139;29;20028;-66
2023/08/23 00:43:55;;;;;;;;;;;;;;;20.85;65.37;101417.50;3969142;29;20028;-65
2023/08/23 00:45:58;;;;;;;;;;;;;;;20.86;65.10;101419.19;3970215;29;20020;-66
2023/08/23 00:48:00;;;;;;;;;;;;;;;20.83;65.13;101425.13;3959395;29;20020;-67
2023/08/23 00:50:04;;;;;;;;;;;;;;;20.80;65.12;101422.84;3969379;29;20016;-66
2023/08/23 00:52:07;;;;;;;;;;;;;;;20.79;65.17;101423.91;3974342;29;20508;-67
2023/08/23 00:54:11;;;;;;;;;;;;;;;20.79;65.41;101429.41;3973650;29;19933;-66
2023/08/23 00:56:12;;;;;;;;;;;;;;;20.80;65.38;101422.84;3967542;29;20373;-64
2023/08/23 00:58:14;;;;;;;;;;;;;;;20.80;65.23;101425.59;3969131;29;20027;-66
2023/08/23 01:00:17;;;;;;;;;;;;;;;20.80;65.05;101420.09;3974244;29;20027;-66
2023/08/23 01:02:19;;;;;;;;;;;;;;;20.80;64.92;101422.84;3967305;29;20021;-65
2023/08/23 01:04:21;;;;;;;;;;;;;;;20.78;65.01;101432.38;3969573;29;20017;-64
2023/08/23 01:06:30;;;;;;;;;;;;;;;20.74;64.91;101422.94;3968432;29;20032;-66
2023/08/23 01:08:33;;;;;;;;;;;;;;;20.73;64.89;101429.47;3969703;29;20036;-65
2023/08/23 01:10:36;;;;;;;;;;;;;;;20.71;65.03;101432.44;3968185;29;20020;-65
2023/08/23 01:12:39;;;;;;;;;;;;;;;20.70;65.13;101434.38;3968225;29;20404;-66
2023/08/23 01:14:45;;;;;;;;;;;;;;;20.70;65.05;101430.75;3969360;29;20297;-66
2023/08/23 01:16:46;;;;;;;;;;;;;;;20.68;64.92;101431.00;3970889;29;20036;-66
2023/08/23 01:18:48;;;;;;;;;;;;;;;20.66;65.02;101424.91;3970144;29;19929;-64
2023/08/23 01:20:50;;;;;;;;;;;;;;;20.62;65.27;101431.88;3968165;29;19976;-65
2023/08/23 01:22:56;;;;;;;;;;;;;;;20.59;65.12;101432.31;3967625;29;20032;-65
2023/08/23 01:24:59;;;;;;;;;;;;;;;20.57;65.17;101433.63;3969432;29;19929;-66
2023/08/23 01:27:00;;;;;;;;;;;;;;;20.57;65.34;101436.38;3970811;29;20027;-67
2023/08/23 01:29:03;;;;;;;;;;;;;;;20.54;65.34;101432.16;3974306;29;19988;-66
2023/08/23 01:31:06;;;;;;;;;;;;;;;20.50;65.51;101434.53;3969162;29;20024;-66
2023/08/23 01:33:09;;;;;;;;;;;;;;;20.48;65.51;101428.41;3968429;29;20023;-66
2023/08/23 01:35:13;;;;;;;;;;;;;;;20.46;65.71;101433.28;3969122;29;20033;-67
2023/08/23 01:37:14;;;;;;;;;;;;;;;20.44;65.82;101427.22;3958749;29;20020;-65
2023/08/23 01:39:17;;;;;;;;;;;;;;;20.41;65.84;101427.66;3969421;29;20464;-66
2023/08/23 01:41:19;;;;;;;;;;;;;;;20.38;65.78;101425.38;3968328;29;20020;-65
2023/08/23 01:43:22;;;;;;;;;;;;;;;20.32;66.00;101424.34;3968138;29;20028;-65
2023/08/23 01:45:24;;;;;;;;;;;;;;;20.24;66.35;101421.91;3968672;29;20008;-65
2023/08/23 01:47:26;;;;;;;;;;;;;;;20.18;66.61;101431.03;3968347;29;20020;-65
2023/08/23 01:49:29;;;;;;;;;;;;;;;20.13;66.67;101426.22;3951924;29;20017;-65
2023/08/23 01:51:31;;;;;;;;;;;;;;;20.11;66.54;101431.09;3959071;29;20020;-65
2023/08/23 01:53:34;;;;;;;;;;;;;;;20.09;66.79;101424.97;3968733;29;20020;-65
2023/08/23 01:55:35;;;;;;;;;;;;;;;20.08;66.79;101433.44;3972147;29;19929;-66
2023/08/23 01:57:40;;;;;;;;;;;;;;;20.07;66.98;101426.28;3958678;29;19987;-66
2023/08/23 01:59:42;;;;;;;;;;;;;;;20.02;67.29;101431.59;3958716;29;20391;-66
2023/08/23 02:01:44;;;;;;;;;;;;;;;19.95;67.75;101437.09;3958871;29;20403;-65
2023/08/23 02:03:45;;;;;;;;;;;;;;;19.90;67.79;101439.69;3969009;29;20023;-66
2023/08/23 02:05:47;;;;;;;;;;;;;;;19.85;67.96;101436.78;3968601;29;20452;-65
2023/08/23 02:07:49;;;;;;;;;;;;;;;19.84;67.56;101437.84;3968251;29;20032;-66
2023/08/23 02:09:55;;;;;;;;;;;;;;;19.85;67.79;101442.25;3965993;29;20508;-66
2023/08/23 02:11:57;;;;;;;;;;;;;;;19.86;67.56;101443.94;3967444;29;20027;-66
2023/08/23 02:14:00;;;;;;;;;;;;;;;19.84;67.76;101424.97;3965628;29;20024;-66
2023/08/23 02:16:06;;;;;;;;;;;;;;;19.82;67.80;101434.50;3958246;29;19934;-65
2023/08/23 02:18:07;;;;;;;;;;;;;;;19.79;67.78;101431.09;3968222;29;20482;-65
2023/08/23 02:20:09;;;;;;;;;;;;;;;19.79;67.62;101433.84;3968757;29;19933;-66
2023/08/23 02:22:11;;;;;;;;;;;;;;;19.78;67.64;101428.59;3968581;29;20025;-66
2023/08/23 02:24:13;;;;;;;;;;;;;;;19.75;67.68;101427.13;3967950;29;20024;-66
2023/08/23 02:26:15;;;;;;;;;;;;;;;19.75;67.75;101429.84;3966959;29;20052;-66
2023/08/23 02:28:18;;;;;;;;;;;;;;;19.78;68.02;101429.44;3968370;29;20031;-66
2023/08/23 02:30:21;;;;;;;;;;;;;;;19.83;67.87;101414.22;3968122;29;20039;-66
2023/08/23 02:32:25;;;;;;;;;;;;;;;19.83;67.66;101417.81;3957544;29;20031;-65
2023/08/23 02:34:26;;;;;;;;;;;;;;;19.84;67.22;101419.47;3968877;29;20021;-67
2023/08/23 02:36:27;;;;;;;;;;;;;;;19.84;67.32;101422.22;3967876;29;19929;-66
2023/08/23 02:38:29;;;;;;;;;;;;;;;19.85;67.03;101415.69;3969022;29;20032;-66
2023/08/23 02:40:31;;;;;;;;;;;;;;;19.85;67.19;101412.94;3972526;29;20015;-66
2023/08/23 02:42:33;;;;;;;;;;;;;;;19.86;67.36;101411.91;3967208;29;20527;-66
2023/08/23 02:44:36;;;;;;;;;;;;;;;19.87;67.05;101407.25;3966271;29;20019;-65
2023/08/23 02:46:39;;;;;;;;;;;;;;;19.86;66.79;101409.16;3973111;29;20500;-65
2023/08/23 02:48:42;;;;;;;;;;;;;;;19.86;66.96;101405.53;3967867;29;20027;-66
2023/08/23 02:50:44;;;;;;;;;;;;;;;19.84;66.93;101405.78;3967774;29;20032;-66
2023/08/23 02:52:45;;;;;;;;;;;;;;;19.81;66.85;101406.22;3967517;29;20024;-66
2023/08/23 02:54:47;;;;;;;;;;;;;;;19.78;66.73;101407.53;3967484;29;20024;-67
2023/08/23 02:56:50;;;;;;;;;;;;;;;19.78;67.00;101403.91;3973192;29;20488;-66
2023/08/23 02:58:51;;;;;;;;;;;;;;;19.77;67.03;101403.09;3968500;29;20029;-67
2023/08/23 03:00:53;;;;;;;;;;;;;;;19.77;67.03;101405.84;3972801;29;20113;-66
2023/08/23 03:02:56;;;;;;;;;;;;;;;19.77;67.08;101413.22;3967332;29;20052;-67
2023/08/23 03:04:59;;;;;;;;;;;;;;;19.76;67.08;101411.50;3972828;29;20504;-66
2023/08/23 03:07:01;;;;;;;;;;;;;;;19.78;67.43;101423.09;3966875;29;20392;-66
2023/08/23 03:09:02;;;;;;;;;;;;;;;19.78;67.23;101410.25;3970323;29;20020;-66
2023/08/23 03:11:05;;;;;;;;;;;;;;;19.78;67.06;101415.75;3960426;29;20012;-66
2023/08/23 03:13:07;;;;;;;;;;;;;;;19.77;67.02;101405.84;3960850;29;20473;-66
2023/08/23 03:15:08;;;;;;;;;;;;;;;19.77;66.95;101402.25;3970665;29;20441;-65
2023/08/23 03:17:11;;;;;;;;;;;;;;;19.74;66.93;101405.41;3946106;30;19930;-66
2023/08/23 03:19:14;;;;;;;;;;;;;;;19.73;66.94;101403.72;3969010;29;20016;-65
2023/08/23 03:21:16;;;;;;;;;;;;;;;19.72;67.12;101405.63;3968741;29;20484;-64
2023/08/23 03:23:19;;;;;;;;;;;;;;;19.71;67.14;101414.06;3969490;29;20027;-65
2023/08/23 03:25:22;;;;;;;;;;;;;;;19.70;66.97;101415.97;3955371;29;20020;-65
2023/08/23 03:27:26;;;;;;;;;;;;;;;19.69;67.31;101419.78;3954845;29;20099;-65
2023/08/23 03:29:28;;;;;;;;;;;;;;;19.70;67.07;101417.88;3969359;29;20016;-66
2023/08/23 03:31:30;;;;;;;;;;;;;;;19.69;67.11;101413.47;3968087;29;20403;-66
2023/08/23 03:33:33;;;;;;;;;;;;;;;19.69;67.12;101416.22;3969291;29;21235;-66
2023/08/23 03:35:36;;;;;;;;;;;;;;;19.68;66.92;101412.59;3969286;29;20040;-66
2023/08/23 03:37:39;;;;;;;;;;;;;;;19.69;67.01;101421.69;3969723;29;19938;-66
2023/08/23 03:39:41;;;;;;;;;;;;;;;19.67;66.97;101419.16;3974849;29;20015;-65
2023/08/23 03:41:43;;;;;;;;;;;;;;;19.66;67.07;101420.22;3968224;29;20517;-65
2023/08/23 03:43:47;;;;;;;;;;;;;;;19.64;66.99;101422.34;3960374;29;20457;-65
2023/08/23 03:45:50;;;;;;;;;;;;;;;19.63;67.03;101415.19;3970700;29;20012;-66
2023/08/23 03:47:53;;;;;;;;;;;;;;;19.60;67.02;101419.19;3975476;29;20034;-66
2023/08/23 03:49:56;;;;;;;;;;;;;;;19.60;67.13;101423.84;3968382;29;20496;-66
2023/08/23 03:51:59;;;;;;;;;;;;;;;19.60;67.10;101418.34;3970259;29;20489;-65
2023/08/23 03:54:04;;;;;;;;;;;;;;;19.59;67.19;101422.16;3967449;29;20024;-66
2023/08/23 03:56:08;;;;;;;;;;;;;;;19.59;67.34;101422.16;3968338;29;20044;-66
2023/08/23 03:58:10;;;;;;;;;;;;;;;19.55;67.58;101419.03;3959839;29;20024;-65
2023/08/23 04:00:13;;;;;;;;;;;;;;;19.50;67.49;101413.38;3971597;29;20481;-66
2023/08/23 04:02:20;;;;;;;;;;;;;;;19.47;67.83;101421.16;3969603;29;20358;-66
2023/08/23 04:04:21;;;;;;;;;;;;;;;19.43;68.00;101423.50;3974456;29;20020;-66
2023/08/23 04:06:23;;;;;;;;;;;;;;;19.37;67.78;101428.00;3960075;29;19929;-66
2023/08/23 04:08:27;;;;;;;;;;;;;;;19.34;67.75;101431.16;3970949;29;20020;-66
2023/08/23 04:10:29;;;;;;;;;;;;;;;19.32;67.68;101421.47;3971019;29;20378;-66
2023/08/23 04:12:33;;;;;;;;;;;;;;;19.30;67.70;101420.88;3969735;29;20048;-66
2023/08/23 04:14:36;;;;;;;;;;;;;;;19.27;67.86;101417.47;3969354;29;20029;-66
2023/08/23 04:16:40;;;;;;;;;;;;;;;19.26;67.79;101415.81;3967743;29;20031;-65
2023/08/23 04:18:42;;;;;;;;;;;;;;;19.24;67.80;101417.09;3971267;29;19929;-67
2023/08/23 04:20:44;;;;;;;;;;;;;;;19.21;67.83;101421.09;3968154;29;20481;-66
2023/08/23 04:22:46;;;;;;;;;;;;;;;19.16;68.29;101418.19;3966551;29;19933;-68
2023/08/23 04:24:51;;;;;;;;;;;;;;;19.14;68.34;101428.50;3968867;29;20368;-65
2023/08/23 04:26:54;;;;;;;;;;;;;;;19.12;68.20;101427.88;3953821;29;20027;-66
2023/08/23 04:28:57;;;;;;;;;;;;;;;19.10;68.39;101421.78;3968691;29;20024;-66
2023/08/23 04:31:02;;;;;;;;;;;;;;;19.11;68.50;101425.34;3970100;29;20028;-65
2023/08/23 04:33:10;;;;;;;;;;;;;;;19.09;68.58;101426.44;3958842;29;20428;-66
2023/08/23 04:35:12;;;;;;;;;;;;;;;19.09;68.62;101423.69;3971097;29;20016;-66
2023/08/23 04:37:14;;;;;;;;;;;;;;;19.09;68.51;101420.94;3958580;29;20032;-66
2023/08/23 04:39:16;;;;;;;;;;;;;;;19.07;68.41;101431.28;3968268;29;19971;-66
2023/08/23 04:41:20;;;;;;;;;;;;;;;19.07;68.72;101422.22;3966396;29;20020;-65
2023/08/23 04:43:24;;;;;;;;;;;;;;;19.08;68.97;101419.25;3967296;29;20032;-63
2023/08/23 04:45:29;;;;;;;;;;;;;;;19.07;68.81;101419.47;3970070;29;20012;-66
2023/08/23 04:47:31;;;;;;;;;;;;;;;19.05;68.83;101416.94;3959495;29;20024;-66
2023/08/23 04:49:36;;;;;;;;;;;;;;;19.06;69.02;101410.44;3974216;29;20021;-67
2023/08/23 04:51:38;;;;;;;;;;;;;;;19.06;68.86;101415.91;3970416;29;20399;-67
2023/08/23 04:53:40;;;;;;;;;;;;;;;19.08;69.01;101418.44;3959206;29;20044;-67
2023/08/23 04:55:42;;;;;;;;;;;;;;;19.09;68.98;101422.84;3973484;29;20436;-68
2023/08/23 04:57:46;;;;;;;;;;;;;;;19.09;68.95;101415.47;3969310;29;20068;-69
2023/08/23 04:59:48;;;;;;;;;;;;;;;19.12;69.12;101419.66;3969187;29;20344;-67
2023/08/23 05:01:49;;;;;;;;;;;;;;;19.15;68.99;101421.97;3968268;29;20545;-67
2023/08/23 05:03:52;;;;;;;;;;;;;;;19.16;68.97;101417.34;3970025;29;20028;-68
2023/08/23 05:05:54;;;;;;;;;;;;;;;19.17;68.97;101419.88;3969571;29;20023;-68
2023/08/23 05:07:57;;;;;;;;;;;;;;;19.17;69.21;101413.53;3984057;29;20020;-68
2023/08/23 05:10:01;;;;;;;;;;;;;;;19.16;69.84;101423.66;3982663;29;20059;-68
2023/08/23 05:12:03;;;;;;;;;;;;;;;19.15;69.50;101421.97;3969574;29;20020;-68
2023/08/23 05:14:07;;;;;;;;;;;;;;;19.14;69.58;101416.69;3966856;29;20028;-67
2023/08/23 05:16:09;;;;;;;;;;;;;;;19.15;70.03;101421.13;3957711;29;20012;-67
2023/08/23 05:18:12;;;;;;;;;;;;;;;19.13;70.00;101426.81;3958339;29;20021;-67
2023/08/23 05:20:14;;;;;;;;;;;;;;;19.13;70.11;101421.34;3958849;29;19972;-67
2023/08/23 05:22:16;;;;;;;;;;;;;;;19.13;70.50;101421.34;3953651;29;20097;-67
2023/08/23 05:24:18;;;;;;;;;;;;;;;19.12;70.29;101414.19;3954053;29;20472;-67
2023/08/23 05:26:20;;;;;;;;;;;;;;;19.12;70.24;101416.91;3969499;29;20542;-67
2023/08/23 05:28:23;;;;;;;;;;;;;;;19.13;70.46;101426.81;3965942;29;20037;-67
2023/08/23 05:30:26;;;;;;;;;;;;;;;19.13;70.52;101426.00;3969156;29;20032;-66
2023/08/23 05:32:28;;;;;;;;;;;;;;;19.12;70.60;101427.88;3959414;29;20024;-66
2023/08/23 05:34:31;;;;;;;;;;;;;;;19.12;71.00;101430.59;3968185;29;20039;-65
2023/08/23 05:36:33;;;;;;;;;;;;;;;19.13;70.71;101431.47;3973492;29;20016;-66
2023/08/23 05:38:35;;;;;;;;;;;;;;;19.15;70.60;101421.97;3970308;29;20023;-66
2023/08/23 05:40:39;;;;;;;;;;;;;;;19.18;70.74;101428.91;3958007;29;20418;-65
2023/08/23 05:42:41;;;;;;;;;;;;;;;19.19;70.86;101422.38;3953815;29;20016;-65
2023/08/23 05:44:43;;;;;;;;;;;;;;;19.21;70.68;101429.31;3946562;30;20037;-66
2023/08/23 05:46:46;;;;;;;;;;;;;;;19.22;71.01;101428.25;3959504;29;19929;-65
2023/08/23 05:48:49;;;;;;;;;;;;;;;19.21;71.26;101423.84;3967749;29;20088;-66
2023/08/23 05:50:51;;;;;;;;;;;;;;;19.24;71.40;101428.88;3971309;29;20033;-67
2023/08/23 05:52:53;;;;;;;;;;;;;;;19.26;71.18;101428.66;3970444;29;20070;-66
2023/08/23 05:54:57;;;;;;;;;;;;;;;19.29;71.17;101433.69;3971490;29;20031;-66
2023/08/23 05:56:59;;;;;;;;;;;;;;;19.30;70.62;101431.81;3969459;29;20448;-66
2023/08/23 05:59:01;;;;;;;;;;;;;;;19.34;70.70;101430.31;3968511;29;20449;-66
2023/08/23 06:01:03;;;;;;;;;;;;;;;19.37;71.05;101427.13;3970920;29;20040;-65
2023/08/23 06:03:07;;;;;;;;;;;;;;;19.40;70.74;101424.81;3968131;29;20020;-65
2023/08/23 06:05:10;;;;;;;;;;;;;;;19.42;71.17;101428.16;3968589;29;20020;-66
2023/08/23 06:07:14;;;;;;;;;;;;;;;19.44;70.92;101423.28;3968292;29;20033;-66
2023/08/23 06:09:16;;;;;;;;;;;;;;;19.47;70.57;101423.91;3967197;29;20033;-66
2023/08/23 06:11:18;;;;;;;;;;;;;;;19.50;70.46;101427.06;3967706;29;20020;-67
2023/08/23 06:13:22;;;;;;;;;;;;;;;19.53;70.55;101423.03;3967052;29;20504;-67
2023/08/23 06:15:24;;;;;;;;;;;;;;;19.53;70.93;101425.75;3968292;29;20007;-66
2023/08/23 06:17:26;;;;;;;;;;;;;;;19.54;70.47;101422.81;3968254;29;20040;-66
2023/08/23 06:19:29;;;;;;;;;;;;;;;19.56;71.50;101423.44;3967658;29;20021;-66
2023/08/23 06:21:32;;;;;;;;;;;;;;;19.58;70.94;101426.78;3968414;29;20519;-66
2023/08/23 06:23:34;;;;;;;;;;;;;;;19.62;70.87;101425.31;3968435;29;19929;-65
2023/08/23 06:25:37;;;;;;;;;;;;;;;19.65;71.40;101432.22;3968522;29;20183;-65
2023/08/23 06:27:39;;;;;;;;;;;;;;;19.66;71.32;101424.88;3967832;29;20391;-65
2023/08/23 06:29:41;;;;;;;;;;;;;;;19.69;70.77;101436.22;3967199;29;20489;-67
2023/08/23 06:31:43;;;;;;;;;;;;;;;19.72;71.57;101430.28;3966859;29;20041;-65
2023/08/23 06:33:48;;;;;;;;;;;;;;;19.75;71.23;101421.63;3970131;29;20024;-66
2023/08/23 06:35:53;;;;;;;;;;;;;;;19.79;71.32;101430.28;3965232;29;20016;-67
2023/08/23 06:37:54;;;;;;;;;;;;;;;19.82;71.44;101439.97;3963803;29;20048;-66
2023/08/23 06:39:56;;;;;;;;;;;;;;;19.86;71.10;101432.97;3964774;29;20027;-67
2023/08/23 06:41:57;;;;;;;;;;;;;;;19.87;70.95;101424.50;3967697;29;20368;-66
2023/08/23 06:44:00;;;;;;;;;;;;;;;19.91;71.53;101424.94;3969616;29;20383;-65
2023/08/23 06:46:02;;;;;;;;;;;;;;;19.95;70.94;101428.88;3970574;29;20385;-66
2023/08/23 06:48:05;;;;;;;;;;;;;;;19.98;70.91;101423.81;3960834;29;20024;-66
2023/08/23 06:50:07;;;;;;;;;;;;;;;20.03;70.63;101425.91;3970939;29;20357;-66
2023/08/23 06:52:10;;;;;;;;;;;;;;;20.08;70.49;101436.19;3971263;29;20020;-66
2023/08/23 06:54:12;;;;;;;;;;;;;;;20.13;70.26;101439.09;3970641;29;20017;-67
2023/08/23 06:56:14;;;;;;;;;;;;;;;20.17;69.64;101430.19;3970691;29;20040;-66
2023/08/23 06:58:18;;;;;;;;;;;;;;;20.24;69.47;101426.56;3971224;29;20031;-66
2023/08/23 07:00:22;;;;;;;;;;;;;;;20.28;69.50;101423.13;3970492;29;20048;-65
2023/08/23 07:02:24;;;;;;;;;;;;;;;20.31;69.15;101430.91;3970126;29;19929;-66
2023/08/23 07:04:26;;;;;;;;;;;;;;;20.34;68.79;101437.84;3970264;29;20041;-65
2023/08/23 07:06:30;;;;;;;;;;;;;;;20.37;68.67;101434.66;3970523;29;20016;-66
2023/08/23 07:08:33;;;;;;;;;;;;;;;20.41;68.51;101430.41;3970976;29;20456;-66
2023/08/23 07:10:35;;;;;;;;;;;;;;;20.44;68.58;101432.69;3970393;29;20020;-66
2023/08/23 07:12:37;;;;;;;;;;;;;;;20.48;68.11;101428.41;3969372;29;20020;-66
2023/08/23 07:14:39;;;;;;;;;;;;;;;20.52;68.28;101432.41;3970525;29;20031;-67
2023/08/23 07:16:44;;;;;;;;;;;;;;;20.56;68.34;101432.78;3984363;29;20464;-67
2023/08/23 07:18:46;;;;;;;;;;;;;;;20.61;68.27;101437.56;3971395;29;20449;-67
2023/08/23 07:20:47;;;;;;;;;;;;;;;20.63;68.14;101430.81;3970430;29;20032;-66
2023/08/23 07:22:49;;;;;;;;;;;;;;;20.67;68.25;101429.34;3970074;29;20412;-67
2023/08/23 07:24:58;;;;;;;;;;;;;;;20.71;67.86;101432.44;3969965;29;20083;-67
2023/08/23 07:27:00;;;;;;;;;;;;;;;20.76;67.97;101431.75;3970058;29;20071;-67
2023/08/23 07:29:02;;;;;;;;;;;;;;;20.79;67.81;101445.03;3970469;29;20012;-67
2023/08/23 07:31:04;;;;;;;;;;;;;;;20.82;67.59;101442.66;3970263;29;20016;-66
2023/08/23 07:33:06;;;;;;;;;;;;;;;20.85;67.50;101439.47;3969483;29;20032;-66
2023/08/23 07:35:08;;;;;;;;;;;;;;;20.88;67.37;101443.66;3970330;29;20033;-66
2023/08/23 07:37:10;;;;;;;;;;;;;;;20.93;67.18;101445.72;3970573;29;20063;-67
2023/08/23 07:39:12;;;;;;;;;;;;;;;20.96;67.35;101448.00;3970463;29;20028;-66
2023/08/23 07:41:16;;;;;;;;;;;;;;;21.00;67.08;101443.72;3969780;29;20012;-66
2023/08/23 07:43:17;;;;;;;;;;;;;;;21.04;67.09;101448.53;3971007;29;19937;-67
2023/08/23 07:45:20;;;;;;;;;;;;;;;21.09;67.03;101441.53;3970145;29;20433;-67
2023/08/23 07:47:21;;;;;;;;;;;;;;;21.12;66.58;101435.56;3969983;29;20016;-67
2023/08/23 07:49:23;;;;;;;;;;;;;;;21.16;66.43;101451.34;3969897;29;20412;-67
2023/08/23 07:51:25;;;;;;;;;;;;;;;21.20;66.08;101446.22;3970099;29;20024;-66
2023/08/23 07:53:30;;;;;;;;;;;;;;;21.23;66.11;101449.34;3969041;29;19933;-67
2023/08/23 07:55:32;;;;;;;;;;;;;;;21.28;65.98;101445.91;3959786;29;19936;-67
2023/08/23 07:57:35;;;;;;;;;;;;;;;21.32;65.86;101444.38;3969718;29;20033;-68
2023/08/23 07:59:36;;;;;;;;;;;;;;;21.37;65.64;101451.94;3970123;29;20445;-66
2023/08/23 08:01:38;;;;;;;;;;;;;;;21.41;65.33;101453.13;3971381;29;20460;-66
2023/08/23 08:03:40;;;;;;;;;;;;;;;21.45;65.60;101443.34;3970977;29;19960;-68
2023/08/23 08:05:42;;;;;;;;;;;;;;;21.51;65.39;101460.88;3969408;29;20028;-68
2023/08/23 08:07:44;;;;;;;;;;;;;;;21.56;65.09;101461.00;3970246;29;20489;-68
2023/08/23 08:09:48;;;;;;;;;;;;;;;21.60;64.71;101459.47;3969955;29;20040;-67
2023/08/23 08:11:50;;;;;;;;;;;;;;;21.64;64.71;101457.91;3969067;29;20037;-67
2023/08/23 08:13:54;;;;;;;;;;;;;;;21.69;64.29;101459.97;3968617;29;20056;-67
2023/08/23 08:15:56;;;;;;;;;;;;;;;21.74;64.25;101463.72;3959372;29;20476;-67
2023/08/23 08:17:57;;;;;;;;;;;;;;;21.79;64.27;101457.50;3969652;29;20032;-65
2023/08/23 08:19:59;;;;;;;;;;;;;;;21.83;64.46;101453.19;3969303;29;20020;-67
2023/08/23 08:22:01;;;;;;;;;;;;;;;21.86;64.01;101449.97;3969093;29;20016;-66
2023/08/23 08:24:03;;;;;;;;;;;;;;;21.91;63.76;101450.13;3969626;29;20122;-67
2023/08/23 08:26:06;;;;;;;;;;;;;;;21.95;63.47;101442.22;3969791;29;20020;-67
2023/08/23 08:28:10;;;;;;;;;;;;;;;21.98;63.47;101443.69;3968882;29;20023;-65
2023/08/23 08:30:13;;;;;;;;;;;;;;;22.02;63.39;101451.22;3968546;29;20043;-66
2023/08/23 08:32:16;;;;;;;;;;;;;;;22.06;63.42;101446.09;3969012;29;20464;-67
2023/08/23 08:34:17;;;;;;;;;;;;;;;22.10;63.31;101450.03;3969402;29;20028;-66
2023/08/23 08:36:20;;;;;;;;;;;;;;;22.13;62.91;101457.78;3969447;29;20034;-67
2023/08/23 08:38:22;;;;;;;;;;;;;;;22.18;62.49;101451.59;3970018;29;20024;-67
2023/08/23 08:40:24;;;;;;;;;;;;;;;22.21;62.66;101451.97;3969804;29;20045;-66
2023/08/23 08:42:26;;;;;;;;;;;;;;;22.24;62.76;101453.38;3969208;29;20024;-67
2023/08/23 08:44:28;;;;;;;;;;;;;;;22.27;62.73;101450.16;3969413;29;20387;-66
2023/08/23 08:46:31;;;;;;;;;;;;;;;22.31;62.63;101454.16;3968857;29;20032;-67
2023/08/23 08:48:33;;;;;;;;;;;;;;;22.35;62.45;101452.63;3969496;29;20566;-66
2023/08/23 08:50:36;;;;;;;;;;;;;;;22.38;62.23;101454.91;3968630;29;20012;-67
2023/08/23 08:52:38;;;;;;;;;;;;;;;22.43;62.26;101465.16;3968961;29;20024;-66
2023/08/23 08:54:40;;;;;;;;;;;;;;;22.45;62.39;101455.59;3969080;29;20052;-66
2023/08/23 08:56:42;;;;;;;;;;;;;;;22.49;62.28;101454.06;3969364;29;20028;-67
2023/08/23 08:58:45;;;;;;;;;;;;;;;22.52;62.45;101452.72;3968934;29;20024;-67
2023/08/23 09:00:49;;;;;;;;;;;;;;;22.56;62.14;101453.09;3968687;29;20020;-67
2023/08/23 09:02:53;;;;;;;;;;;;;;;22.59;62.18;101455.38;3969371;29;20015;-66
2023/08/23 09:04:55;;;;;;;;;;;;;;;22.61;61.96;101453.19;3968584;29;20401;-67
2023/08/23 09:06:57;;;;;;;;;;;;;;;22.63;61.71;101453.78;3968667;29;20044;-67
2023/08/23 09:08:59;;;;;;;;;;;;;;;22.65;61.62;101446.16;3969527;29;20016;-67
2023/08/23 09:11:01;;;;;;;;;;;;;;;22.68;61.74;101453.94;3969283;29;20365;-67
2023/08/23 09:13:03;;;;;;;;;;;;;;;22.71;61.81;101455.34;3968629;29;20012;-67
2023/08/23 09:15:06;;;;;;;;;;;;;;;22.75;61.50;101453.78;3969100;29;20028;-67
2023/08/23 09:17:08;;;;;;;;;;;;;;;22.79;61.57;101454.97;3969188;29;20021;-67
2023/08/23 09:19:12;;;;;;;;;;;;;;;22.80;61.14;101449.22;3969291;29;20605;-66
2023/08/23 09:21:14;;;;;;;;;;;;;;;22.82;61.27;101449.84;3968381;29;20024;-67
2023/08/23 09:23:16;;;;;;;;;;;;;;;22.85;61.18;101454.00;3967056;29;19973;-67
2023/08/23 09:25:18;;;;;;;;;;;;;;;22.86;60.85;101456.50;3968527;29;20024;-67
2023/08/23 09:27:22;;;;;;;;;;;;;;;22.91;60.71;101454.97;3968883;29;20036;-67
2023/08/23 09:29:24;;;;;;;;;;;;;;;22.94;60.52;101462.75;3968331;29;20448;-68
2023/08/23 09:31:26;;;;;;;;;;;;;;;22.95;60.54;101454.25;3968459;29;20367;-67
2023/08/23 09:33:28;;;;;;;;;;;;;;;22.99;60.65;101463.69;3969089;29;20016;-66
2023/08/23 09:35:32;;;;;;;;;;;;;;;23.02;60.37;101462.34;3968963;29;20372;-65
2023/08/23 09:37:33;;;;;;;;;;;;;;;23.04;60.24;101455.53;3968281;29;20063;-63
2023/08/23 09:39:35;;;;;;;;;;;;;;;23.08;60.14;101460.56;3969454;29;19972;-67
2023/08/23 09:41:38;;;;;;;;;;;;;;;23.11;59.95;101466.44;3969226;29;20027;-66
2023/08/23 09:43:39;;;;;;;;;;;;;;;23.15;59.81;101461.28;3968528;29;20121;-66
2023/08/23 09:45:41;;;;;;;;;;;;;;;23.17;59.60;101464.66;3968086;29;19933;-66
2023/08/23 09:47:42;;;;;;;;;;;;;;;23.20;59.32;101469.66;3968330;29;20043;-66
2023/08/23 09:49:44;;;;;;;;;;;;;;;23.22;59.21;101473.00;3968455;29;20036;-66
2023/08/23 09:51:50;;;;;;;;;;;;;;;23.24;59.02;101467.25;3969359;29;20025;-67
2023/08/23 09:53:54;;;;;;;;;;;;;;;23.25;58.68;101467.00;3967114;29;20016;-67
2023/08/23 09:55:56;;;;;;;;;;;;;;;23.27;58.62;101470.34;3967937;29;20024;-66
2023/08/23 09:57:58;;;;;;;;;;;;;;;23.29;58.33;101465.44;3958618;29;20032;-66
2023/08/23 10:00:00;;;;;;;;;;;;;;;23.31;58.24;101460.53;3967931;29;20021;-66
2023/08/23 10:02:02;;;;;;;;;;;;;;;23.33;58.18;101458.34;3967553;29;20480;-67
2023/08/23 10:04:08;;;;;;;;;;;;;;;23.35;57.98;101467.22;3967933;29;19941;-67
2023/08/23 10:06:10;;;;;;;;;;;;;;;23.39;57.69;101464.81;3968539;29;20004;-66
2023/08/23 10:08:14;;;;;;;;;;;;;;;23.41;57.75;101462.63;3968374;29;20005;-66
2023/08/23 10:10:16;;;;;;;;;;;;;;;23.42;57.59;101461.56;3967507;29;20019;-67
2023/08/23 10:12:18;;;;;;;;;;;;;;;23.46;57.54;101456.38;3968478;29;20016;-67
2023/08/23 10:14:20;;;;;;;;;;;;;;;23.48;57.45;101465.25;3966504;29;20029;-67
2023/08/23 10:16:24;;;;;;;;;;;;;;;23.51;57.47;101464.75;3967962;29;20032;-66
2023/08/23 10:18:26;;;;;;;;;;;;;;;23.52;57.63;101469.19;3967184;29;20008;-66
2023/08/23 10:20:28;;;;;;;;;;;;;;;23.53;57.30;101468.94;3967280;29;19929;-66
2023/08/23 10:22:30;;;;;;;;;;;;;;;23.54;57.26;101467.88;3967488;29;20016;-67
2023/08/23 10:24:34;;;;;;;;;;;;;;;23.56;57.13;101462.94;3967658;29;20031;-66
2023/08/23 10:26:44;;;;;;;;;;;;;;;23.58;57.04;101465.44;3967982;29;20028;-66
2023/08/23 10:28:49;;;;;;;;;;;;;;;23.60;57.13;101460.50;3967439;29;20045;-67